createdAt,value
2017-05-08T00:00:41.016Z,72.94
2017-05-08T00:03:08.567Z,73.34
2017-05-08T00:05:36.091Z,74.07
2017-05-08T00:08:03.660Z,74.03
2017-05-08T00:10:31.207Z,74.16
2017-05-08T00:12:58.880Z,74.05
2017-05-08T00:15:26.438Z,73.82
2017-05-08T00:17:54.032Z,73.22
2017-05-08T00:20:21.649Z,73.69
2017-05-08T00:22:49.206Z,74.14
2017-05-08T00:25:16.878Z,74.26
2017-05-08T00:27:44.401Z,74.34
2017-05-08T00:30:11.928Z,74.41
2017-05-08T00:32:39.480Z,73.90
2017-05-08T00:35:07.164Z,73.75
2017-05-08T00:37:34.716Z,73.44
2017-05-08T00:40:02.272Z,73.88
2017-05-08T00:42:30.131Z,73.18
2017-05-08T00:44:57.653Z,73.80
2017-05-08T00:47:25.211Z,73.33
2017-05-08T00:49:52.767Z,73.13
2017-05-08T00:52:20.331Z,72.88
2017-05-08T00:54:48.139Z,74.00
2017-05-08T00:57:15.703Z,73.57
2017-05-08T00:59:43.224Z,73.76
2017-05-08T01:02:10.779Z,72.65
2017-05-08T01:04:38.370Z,71.89
2017-05-08T01:07:05.930Z,71.79
2017-05-08T01:09:33.452Z,71.68
2017-05-08T01:12:01.057Z,71.39
2017-05-08T01:14:28.596Z,71.66
2017-05-08T01:16:56.156Z,71.90
2017-05-08T01:19:23.671Z,72.36
2017-05-08T01:21:51.266Z,72.37
2017-05-08T01:24:18.798Z,71.88
2017-05-08T01:26:46.364Z,71.72
2017-05-08T01:29:13.883Z,71.58
2017-05-08T01:31:41.467Z,71.09
2017-05-08T01:34:08.984Z,71.16
2017-05-08T01:36:36.564Z,70.59
2017-05-08T01:39:04.081Z,70.53
2017-05-08T01:41:31.916Z,69.93
2017-05-08T01:43:59.463Z,69.19
2017-05-08T01:46:26.996Z,69.07
2017-05-08T01:48:54.562Z,68.68
2017-05-08T01:51:22.091Z,68.43
2017-05-08T01:53:49.647Z,67.53
2017-05-08T01:56:17.170Z,67.58
2017-05-08T01:58:44.731Z,67.47
2017-05-08T02:01:12.249Z,67.54
2017-05-08T02:03:39.811Z,67.46
2017-05-08T02:06:07.340Z,66.82
2017-05-08T02:08:34.900Z,67.32
2017-05-08T02:11:02.418Z,66.81
2017-05-08T02:13:29.979Z,67.03
2017-05-08T02:15:57.491Z,67.33
2017-05-08T02:18:25.053Z,67.73
2017-05-08T02:20:52.576Z,67.65
2017-05-08T02:23:20.179Z,68.05
2017-05-08T02:25:47.696Z,68.05
2017-05-08T02:28:15.299Z,67.77
2017-05-08T02:30:42.845Z,67.86
2017-05-08T02:33:10.695Z,68.41
2017-05-08T02:35:38.215Z,68.40
2017-05-08T02:38:05.734Z,68.27
2017-05-08T02:40:33.291Z,68.62
2017-05-08T02:43:00.820Z,68.46
2017-05-08T02:45:28.405Z,68.07
2017-05-08T02:47:55.956Z,68.49
2017-05-08T02:50:23.516Z,68.27
2017-05-08T02:52:51.038Z,68.62
2017-05-08T02:55:18.588Z,68.41
2017-05-08T02:57:46.091Z,68.53
2017-05-08T03:00:13.651Z,68.06
2017-05-08T03:02:41.171Z,68.64
2017-05-08T03:05:08.744Z,68.42
2017-05-08T03:07:36.255Z,68.11
2017-05-08T03:10:03.811Z,68.46
2017-05-08T03:12:31.329Z,68.09
2017-05-08T03:14:58.932Z,67.96
2017-05-08T03:17:26.500Z,68.00
2017-05-08T03:19:54.230Z,68.29
2017-05-08T03:22:21.769Z,69.05
2017-05-08T03:24:49.275Z,69.33
2017-05-08T03:27:16.839Z,69.17
2017-05-08T03:29:44.375Z,68.50
2017-05-08T03:32:11.923Z,68.49
2017-05-08T03:34:39.451Z,68.08
2017-05-08T03:37:07.004Z,68.02
2017-05-08T03:39:34.527Z,68.12
2017-05-08T03:42:02.088Z,68.58
2017-05-08T03:44:29.641Z,69.05
2017-05-08T03:46:57.204Z,69.16
2017-05-08T03:49:24.719Z,68.99
2017-05-08T03:51:52.299Z,68.90
2017-05-08T03:54:19.812Z,69.43
2017-05-08T03:56:47.370Z,68.45
2017-05-08T03:59:14.991Z,68.37
2017-05-08T04:01:42.603Z,68.30
2017-05-08T04:04:10.149Z,68.17
2017-05-08T04:06:37.707Z,68.82
2017-05-08T04:09:05.432Z,68.70
2017-05-08T04:11:33.219Z,69.11
2017-05-08T04:14:00.740Z,68.74
2017-05-08T04:16:28.251Z,68.82
2017-05-08T04:18:55.852Z,68.98
2017-05-08T04:21:23.373Z,68.37
2017-05-08T04:23:50.937Z,68.71
2017-05-08T04:26:18.484Z,69.46
2017-05-08T04:28:46.052Z,69.20
2017-05-08T04:31:13.606Z,69.22
2017-05-08T04:33:41.358Z,68.67
2017-05-08T04:36:08.930Z,69.25
2017-05-08T04:38:36.479Z,69.62
2017-05-08T04:41:04.017Z,70.04
2017-05-08T04:43:31.580Z,69.62
2017-05-08T04:45:59.116Z,69.44
2017-05-08T04:48:26.771Z,69.68
2017-05-08T04:50:54.359Z,70.11
2017-05-08T04:53:21.916Z,69.80
2017-05-08T04:55:49.491Z,69.85
2017-05-08T04:58:17.051Z,69.27
2017-05-08T05:00:44.566Z,69.18
2017-05-08T05:03:12.097Z,68.87
2017-05-08T05:05:39.647Z,69.35
2017-05-08T05:08:07.171Z,68.37
2017-05-08T05:10:34.710Z,68.85
2017-05-08T05:13:02.246Z,68.94
2017-05-08T05:15:29.793Z,68.20
2017-05-08T05:17:57.327Z,68.70
2017-05-08T05:20:24.879Z,68.44
2017-05-08T05:22:52.670Z,68.35
2017-05-08T05:25:20.249Z,68.36
2017-05-08T05:27:48.442Z,68.87
2017-05-08T05:30:16.012Z,69.12
2017-05-08T05:32:43.543Z,68.78
2017-05-08T05:35:11.131Z,69.33
2017-05-08T05:37:38.801Z,70.05
2017-05-08T05:40:06.436Z,70.48
2017-05-08T05:42:34.550Z,70.95
2017-05-08T05:45:02.286Z,71.01
2017-05-08T05:47:29.887Z,71.18
2017-05-08T05:50:00.165Z,71.81
2017-05-08T05:52:27.803Z,71.97
2017-05-08T05:54:55.544Z,72.66
2017-05-08T05:57:23.078Z,72.78
2017-05-08T05:59:50.767Z,74.18
2017-05-08T06:02:18.278Z,75.41
2017-05-08T06:04:45.921Z,75.54
2017-05-08T06:07:13.466Z,75.90
2017-05-08T06:09:40.984Z,75.95
2017-05-08T06:12:08.572Z,76.40
2017-05-08T06:14:36.104Z,75.56
2017-05-08T06:17:03.751Z,75.40
2017-05-08T06:19:31.289Z,75.87
2017-05-08T06:21:59.036Z,76.01
2017-05-08T06:24:26.581Z,76.40
2017-05-08T06:26:54.093Z,76.70
2017-05-08T06:29:21.672Z,76.75
2017-05-08T06:31:49.248Z,76.11
2017-05-08T06:34:16.958Z,75.69
2017-05-08T06:36:44.525Z,75.97
2017-05-08T06:39:12.045Z,74.25
2017-05-08T06:41:39.759Z,74.56
2017-05-08T06:44:07.283Z,74.03
2017-05-08T06:46:34.804Z,74.04
2017-05-08T06:49:02.373Z,73.70
2017-05-08T06:51:29.948Z,73.37
2017-05-08T06:53:57.596Z,71.82
2017-05-08T06:56:25.123Z,71.62
2017-05-08T06:58:52.701Z,70.94
2017-05-08T07:01:20.216Z,71.01
2017-05-08T07:03:47.874Z,71.61
2017-05-08T07:06:15.423Z,72.44
2017-05-08T07:08:42.998Z,72.74
2017-05-08T07:11:10.539Z,73.27
2017-05-08T07:13:38.133Z,73.87
2017-05-08T07:16:05.669Z,74.71
2017-05-08T07:18:33.243Z,75.52
2017-05-08T07:21:00.769Z,75.73
2017-05-08T07:23:28.333Z,75.20
2017-05-08T07:25:55.884Z,75.89
2017-05-08T07:28:23.447Z,75.62
2017-05-08T07:30:50.991Z,75.61
2017-05-08T07:33:18.867Z,74.75
2017-05-08T07:35:46.392Z,73.20
2017-05-08T07:38:13.908Z,72.43
2017-05-08T07:40:41.474Z,71.00
2017-05-08T07:43:09.015Z,72.22
2017-05-08T07:45:36.585Z,72.15
2017-05-08T07:48:04.105Z,71.84
2017-05-08T07:50:31.660Z,72.11
2017-05-08T07:52:59.200Z,70.89
2017-05-08T07:55:26.764Z,71.00
2017-05-08T07:57:54.279Z,71.31
2017-05-08T08:00:21.869Z,70.84
2017-05-08T08:02:49.399Z,69.27
2017-05-08T08:05:16.969Z,69.57
2017-05-08T08:07:44.551Z,68.74
2017-05-08T08:10:12.111Z,68.62
2017-05-08T08:12:39.651Z,68.54
2017-05-08T08:15:07.200Z,67.58
2017-05-08T08:17:34.736Z,67.68
2017-05-08T08:20:02.291Z,66.27
2017-05-08T08:22:29.817Z,64.54
2017-05-08T08:24:57.412Z,63.13
2017-05-08T08:27:24.983Z,62.65
2017-05-08T08:29:52.596Z,62.14
2017-05-08T08:32:20.196Z,61.68
2017-05-08T08:34:47.751Z,59.98
2017-05-08T08:37:15.337Z,60.38
2017-05-08T08:39:42.919Z,60.90
2017-05-08T08:42:10.565Z,60.48
2017-05-08T08:44:38.084Z,59.72
2017-05-08T08:47:05.703Z,59.39
2017-05-08T08:49:33.328Z,59.44
2017-05-08T08:52:00.884Z,59.69
2017-05-08T08:54:28.422Z,60.24
2017-05-08T08:56:56.109Z,60.16
2017-05-08T08:59:23.669Z,60.59
2017-05-08T09:01:51.287Z,59.70
2017-05-08T09:04:18.820Z,59.50
2017-05-08T09:06:46.422Z,60.07
2017-05-08T09:09:13.947Z,60.21
2017-05-08T09:11:41.620Z,60.48
2017-05-08T09:14:09.160Z,60.42
2017-05-08T09:16:36.671Z,61.11
2017-05-08T09:19:04.232Z,59.91
2017-05-08T09:21:31.757Z,60.56
2017-05-08T09:23:59.343Z,59.97
2017-05-08T09:26:26.859Z,59.44
2017-05-08T09:28:54.425Z,59.48
2017-05-08T09:31:21.949Z,58.98
2017-05-08T09:33:49.508Z,58.87
2017-05-08T09:36:17.008Z,58.36
2017-05-08T09:38:44.567Z,58.41
2017-05-08T09:41:12.088Z,57.87
2017-05-08T09:43:39.671Z,58.71
2017-05-08T09:46:07.199Z,58.61
2017-05-08T09:48:34.767Z,58.83
2017-05-08T09:51:02.308Z,59.27
2017-05-08T09:53:29.856Z,58.53
2017-05-08T09:55:57.392Z,58.79
2017-05-08T09:58:24.997Z,58.41
2017-05-08T10:00:52.571Z,59.82
2017-05-08T10:03:20.249Z,59.24
2017-05-08T10:05:47.787Z,59.11
2017-05-08T10:08:15.324Z,58.54
2017-05-08T10:10:42.875Z,59.41
2017-05-08T10:13:10.407Z,60.53
2017-05-08T10:15:37.955Z,60.68
2017-05-08T10:18:05.517Z,59.64
2017-05-08T10:20:33.080Z,59.65
2017-05-08T10:23:00.612Z,60.17
2017-05-08T10:25:28.191Z,60.39
2017-05-08T10:27:55.712Z,60.35
2017-05-08T10:30:23.272Z,60.29
2017-05-08T10:32:50.799Z,60.38
2017-05-08T10:35:18.360Z,60.42
2017-05-08T10:37:45.878Z,60.92
2017-05-08T10:40:13.446Z,61.51
2017-05-08T10:42:40.978Z,61.77
2017-05-08T10:45:08.535Z,61.63
2017-05-08T10:47:36.062Z,61.16
2017-05-08T10:50:03.618Z,60.92
2017-05-08T10:52:31.155Z,61.58
2017-05-08T10:54:58.728Z,61.30
2017-05-08T10:57:26.300Z,61.90
2017-05-08T10:59:53.831Z,61.90
2017-05-08T11:02:21.385Z,61.28
2017-05-08T11:04:48.912Z,60.69
2017-05-08T11:07:16.472Z,60.10
2017-05-08T11:09:43.993Z,60.98
2017-05-08T11:12:11.553Z,61.49
2017-05-08T11:14:39.089Z,61.87
2017-05-08T11:17:06.723Z,61.75
2017-05-08T11:19:34.247Z,61.36
2017-05-08T11:22:01.799Z,61.28
2017-05-08T11:24:29.324Z,61.93
2017-05-08T11:26:56.877Z,61.93
2017-05-08T11:29:24.400Z,60.90
2017-05-08T11:31:51.971Z,60.23
2017-05-08T11:34:19.503Z,60.11
2017-05-08T11:36:47.073Z,61.13
2017-05-08T11:39:14.592Z,61.36
2017-05-08T11:41:42.282Z,61.89
2017-05-08T11:44:09.801Z,61.80
2017-05-08T11:46:37.364Z,61.62
2017-05-08T11:49:04.924Z,61.19
2017-05-08T11:51:32.444Z,62.48
2017-05-08T11:54:00.016Z,61.42
2017-05-08T11:56:27.574Z,62.00
2017-05-08T11:58:55.134Z,61.99
2017-05-08T12:01:22.647Z,61.67
2017-05-08T12:03:50.247Z,62.17
2017-05-08T12:06:17.773Z,62.90
2017-05-08T12:08:45.319Z,63.43
2017-05-08T12:11:12.852Z,63.51
2017-05-08T12:13:40.408Z,63.21
2017-05-08T12:16:07.935Z,62.92
2017-05-08T12:18:35.559Z,62.77
2017-05-08T12:21:03.153Z,63.04
2017-05-08T12:23:30.728Z,62.88
2017-05-08T12:25:58.304Z,62.75
2017-05-08T12:28:25.879Z,64.01
2017-05-08T12:30:53.394Z,63.79
2017-05-08T12:33:21.112Z,63.92
2017-05-08T12:35:48.691Z,64.34
2017-05-08T12:38:16.247Z,64.78
2017-05-08T12:40:43.837Z,64.48
2017-05-08T12:43:11.396Z,64.45
2017-05-08T12:45:38.975Z,65.22
2017-05-08T12:48:06.520Z,64.59
2017-05-08T12:50:34.126Z,66.66
2017-05-08T12:53:01.674Z,67.83
2017-05-08T12:55:29.235Z,68.08
2017-05-08T12:57:56.759Z,69.37
2017-05-08T13:00:24.318Z,68.85
2017-05-08T13:02:51.839Z,70.51
2017-05-08T13:05:19.384Z,69.80
2017-05-08T13:07:46.901Z,71.05
2017-05-08T13:10:14.549Z,72.58
2017-05-08T13:12:42.078Z,72.54
2017-05-08T13:15:09.657Z,73.64
2017-05-08T13:17:37.171Z,74.13
2017-05-08T13:20:04.731Z,74.39
2017-05-08T13:22:32.261Z,75.51
2017-05-08T13:24:59.983Z,77.61
2017-05-08T13:27:27.527Z,77.82
2017-05-08T13:29:55.047Z,78.21
2017-05-08T13:32:22.639Z,79.17
2017-05-08T13:34:50.170Z,78.64
2017-05-08T13:37:17.748Z,78.66
2017-05-08T13:39:45.296Z,81.23
2017-05-08T13:42:12.855Z,81.19
2017-05-08T13:44:40.411Z,82.05
2017-05-08T13:47:07.993Z,80.80
2017-05-08T13:49:35.519Z,80.66
2017-05-08T13:52:03.090Z,81.44
2017-05-08T13:54:30.622Z,80.67
2017-05-08T13:56:58.236Z,79.93
2017-05-08T13:59:25.788Z,78.38
2017-05-08T14:01:53.392Z,77.60
2017-05-08T14:04:20.926Z,77.14
2017-05-08T14:06:48.503Z,76.89
2017-05-08T14:09:16.115Z,76.34
2017-05-08T14:11:43.696Z,76.92
2017-05-08T14:14:11.231Z,75.88
2017-05-08T14:16:38.773Z,75.26
2017-05-08T14:19:06.331Z,75.53
2017-05-08T14:21:33.851Z,75.55
2017-05-08T14:24:01.439Z,75.34
2017-05-08T14:26:29.008Z,75.63
2017-05-08T14:28:56.577Z,75.55
2017-05-08T14:31:24.172Z,75.53
2017-05-08T14:33:51.764Z,73.96
2017-05-08T14:36:19.316Z,73.20
2017-05-08T14:38:46.892Z,71.50
2017-05-08T14:41:14.419Z,71.95
2017-05-08T14:43:42.005Z,71.03
2017-05-08T14:46:10.145Z,71.39
2017-05-08T14:48:37.691Z,71.54
2017-05-08T14:51:05.232Z,71.69
2017-05-08T14:53:32.792Z,69.56
2017-05-08T14:56:00.296Z,69.27
2017-05-08T14:58:27.873Z,69.66
2017-05-08T15:00:55.480Z,69.71
2017-05-08T15:03:23.336Z,69.73
2017-05-08T15:05:50.855Z,70.45
2017-05-08T15:08:18.404Z,70.71
2017-05-08T15:10:45.954Z,71.15
2017-05-08T15:13:13.488Z,70.87
2017-05-08T15:15:41.040Z,71.23
2017-05-08T15:18:08.623Z,71.83
2017-05-08T15:20:36.208Z,71.23
2017-05-08T15:23:03.797Z,70.65
2017-05-08T15:25:31.405Z,70.52
2017-05-08T15:27:58.928Z,70.50
2017-05-08T15:30:26.513Z,70.16
2017-05-08T15:32:54.051Z,71.36
2017-05-08T15:35:21.662Z,71.16
2017-05-08T15:37:49.202Z,71.04
2017-05-08T15:40:16.762Z,71.00
2017-05-08T15:42:44.297Z,70.95
2017-05-08T15:45:11.873Z,70.29
2017-05-08T15:47:39.388Z,70.67
2017-05-08T15:50:06.947Z,69.66
2017-05-08T15:52:34.463Z,69.14
2017-05-08T15:55:02.303Z,68.83
2017-05-08T15:57:29.870Z,69.16
2017-05-08T15:59:57.410Z,69.87
2017-05-08T16:02:25.056Z,69.29
2017-05-08T16:04:52.587Z,69.38
2017-05-08T16:07:20.228Z,69.17
2017-05-08T16:09:47.751Z,69.14
2017-05-08T16:12:15.328Z,68.96
2017-05-08T16:14:42.847Z,69.69
2017-05-08T16:17:10.448Z,68.15
2017-05-08T16:19:37.971Z,67.97
2017-05-08T16:22:06.084Z,67.58
2017-05-08T16:24:33.622Z,66.74
2017-05-08T16:27:01.204Z,67.57
2017-05-08T16:29:28.723Z,67.19
2017-05-08T16:31:56.291Z,67.74
2017-05-08T16:34:23.797Z,67.87
2017-05-08T16:36:51.380Z,68.81
2017-05-08T16:39:18.913Z,68.90
2017-05-08T16:41:46.528Z,69.13
2017-05-08T16:44:14.097Z,69.26
2017-05-08T16:46:41.643Z,68.81
2017-05-08T16:49:09.330Z,69.23
2017-05-08T16:51:36.864Z,69.22
2017-05-08T16:54:04.453Z,68.96
2017-05-08T16:56:32.006Z,69.21
2017-05-08T16:58:59.589Z,69.38
2017-05-08T17:01:27.144Z,68.69
2017-05-08T17:03:54.693Z,68.78
2017-05-08T17:06:22.245Z,68.44
2017-05-08T17:08:49.799Z,68.80
2017-05-08T17:11:17.355Z,69.51
2017-05-08T17:13:44.948Z,68.45
2017-05-08T17:16:12.475Z,67.96
2017-05-08T17:18:40.040Z,67.88
2017-05-08T17:21:07.571Z,65.89
2017-05-08T17:23:35.154Z,64.02
2017-05-08T17:26:02.720Z,62.57
2017-05-08T17:28:30.328Z,62.14
2017-05-08T17:30:57.869Z,60.62
2017-05-08T17:33:25.999Z,59.88
2017-05-08T17:35:53.521Z,60.29
2017-05-08T17:38:21.064Z,60.05
2017-05-08T17:40:48.687Z,61.78
2017-05-08T17:43:16.257Z,63.82
2017-05-08T17:45:43.839Z,65.25
2017-05-08T17:48:11.509Z,65.91
2017-05-08T17:50:39.091Z,66.06
2017-05-08T17:53:06.635Z,66.98
2017-05-08T17:55:34.252Z,67.02
2017-05-08T17:58:01.816Z,67.55
2017-05-08T18:00:29.427Z,67.49
2017-05-08T18:02:56.958Z,68.00
2017-05-08T18:05:24.641Z,68.69
2017-05-08T18:07:52.204Z,69.16
2017-05-08T18:10:19.780Z,69.30
2017-05-08T18:12:47.339Z,69.42
2017-05-08T18:15:14.951Z,69.15
2017-05-08T18:17:42.495Z,70.53
2017-05-08T18:20:10.076Z,69.90
2017-05-08T18:22:37.624Z,69.37
2017-05-08T18:25:05.480Z,70.25
2017-05-08T18:27:33.031Z,70.51
2017-05-08T18:30:00.581Z,70.79
2017-05-08T18:32:28.177Z,71.32
2017-05-08T18:34:55.709Z,71.62
2017-05-08T18:37:23.353Z,72.06
2017-05-08T18:39:51.025Z,72.29
2017-05-08T18:42:18.613Z,71.80
2017-05-08T18:44:46.207Z,72.32
2017-05-08T18:47:13.739Z,73.19
2017-05-08T18:49:41.346Z,72.72
2017-05-08T18:52:08.961Z,73.28
2017-05-08T18:54:36.537Z,71.55
2017-05-08T18:57:04.077Z,70.83
2017-05-08T18:59:31.982Z,70.82
2017-05-08T19:01:59.525Z,71.32
2017-05-08T19:04:27.077Z,70.82
2017-05-08T19:06:54.668Z,71.47
2017-05-08T19:09:22.228Z,71.86
2017-05-08T19:11:49.818Z,72.51
2017-05-08T19:14:17.350Z,72.59
2017-05-08T19:16:44.904Z,72.49
2017-05-08T19:19:12.808Z,73.75
2017-05-08T19:21:40.377Z,73.23
2017-05-08T19:24:07.928Z,73.74
2017-05-08T19:26:35.496Z,74.36
2017-05-08T19:29:03.051Z,75.36
2017-05-08T19:31:30.643Z,75.50
2017-05-08T19:33:58.185Z,74.65
2017-05-08T19:36:25.717Z,75.67
2017-05-08T19:38:53.287Z,75.00
2017-05-08T19:41:20.815Z,75.71
2017-05-08T19:43:48.377Z,75.99
2017-05-08T19:46:15.920Z,75.68
2017-05-08T19:48:43.860Z,74.96
2017-05-08T19:51:11.391Z,74.28
2017-05-08T19:53:38.926Z,75.62
2017-05-08T19:56:06.502Z,74.73
2017-05-08T19:58:34.079Z,74.23
2017-05-08T20:01:01.677Z,74.09
2017-05-08T20:03:29.298Z,73.87
2017-05-08T20:05:56.898Z,74.12
2017-05-08T20:08:24.473Z,73.94
2017-05-08T20:10:52.112Z,74.15
2017-05-08T20:13:19.692Z,74.10
2017-05-08T20:15:47.435Z,75.15
2017-05-08T20:18:14.991Z,75.20
2017-05-08T20:20:42.513Z,75.93
2017-05-08T20:23:10.107Z,75.11
2017-05-08T20:25:37.639Z,76.17
2017-05-08T20:28:05.254Z,76.73
2017-05-08T20:30:32.788Z,76.35
2017-05-08T20:33:00.372Z,76.53
2017-05-08T20:35:27.928Z,76.57
2017-05-08T20:37:55.456Z,76.86
2017-05-08T20:40:23.027Z,77.18
2017-05-08T20:42:50.575Z,78.16
2017-05-08T20:45:18.185Z,78.17
2017-05-08T20:47:45.847Z,77.63
2017-05-08T20:50:13.405Z,76.90
2017-05-08T20:52:41.026Z,76.40
2017-05-08T20:55:08.577Z,75.81
2017-05-08T20:57:36.185Z,76.31
2017-05-08T21:00:03.699Z,77.07
2017-05-08T21:02:31.236Z,78.44
2017-05-08T21:04:58.937Z,77.90
2017-05-08T21:07:26.484Z,77.76
2017-05-08T21:09:54.039Z,78.62
2017-05-08T21:12:21.673Z,78.42
2017-05-08T21:14:49.223Z,78.56
2017-05-08T21:17:17.196Z,78.28
2017-05-08T21:19:44.742Z,78.13
2017-05-08T21:22:12.276Z,78.17
2017-05-08T21:24:39.841Z,78.54
2017-05-08T21:27:07.389Z,78.51
2017-05-08T21:29:35.072Z,78.48
2017-05-08T21:32:02.614Z,78.35
2017-05-08T21:34:30.177Z,78.57
2017-05-08T21:36:57.773Z,79.00
2017-05-08T21:39:25.296Z,79.03
2017-05-08T21:41:52.881Z,79.66
2017-05-08T21:44:20.407Z,79.78
2017-05-08T21:46:48.079Z,79.55
2017-05-08T21:49:15.601Z,77.49
2017-05-08T21:51:43.133Z,74.46
2017-05-08T21:54:10.695Z,71.42
2017-05-08T21:56:38.208Z,70.24
2017-05-08T21:59:05.839Z,68.92
2017-05-08T22:01:33.382Z,67.98
2017-05-08T22:04:01.093Z,67.56
2017-05-08T22:06:28.609Z,66.87
2017-05-08T22:08:56.129Z,66.08
2017-05-08T22:11:23.679Z,66.62
2017-05-08T22:13:51.210Z,66.50
2017-05-08T22:16:18.923Z,64.86
2017-05-08T22:18:46.448Z,65.47
2017-05-08T22:21:13.970Z,65.23
2017-05-08T22:23:41.572Z,64.81
2017-05-08T22:26:09.087Z,64.64
2017-05-08T22:28:36.732Z,64.92
2017-05-08T22:31:04.310Z,64.11
2017-05-08T22:33:32.127Z,63.88
2017-05-08T22:36:01.547Z,64.01
2017-05-08T22:38:29.142Z,63.93
2017-05-08T22:40:57.198Z,63.79
2017-05-08T22:43:25.053Z,63.83
2017-05-08T22:45:52.910Z,64.07
2017-05-08T22:48:20.481Z,65.06
2017-05-08T22:50:48.327Z,65.52
2017-05-08T22:53:16.051Z,65.49
2017-05-08T22:55:43.878Z,66.01
2017-05-08T22:58:12.083Z,65.38
2017-05-08T23:00:39.705Z,65.66
2017-05-08T23:03:07.382Z,66.34
2017-05-08T23:05:35.510Z,65.73
2017-05-08T23:08:03.075Z,66.57
2017-05-08T23:10:30.607Z,65.96
2017-05-08T23:12:58.220Z,66.53
2017-05-08T23:15:25.779Z,66.27
2017-05-08T23:17:53.302Z,66.70
2017-05-08T23:20:20.956Z,65.53
2017-05-08T23:22:48.540Z,65.90
2017-05-08T23:25:16.257Z,65.45
2017-05-08T23:27:43.786Z,65.74
2017-05-08T23:30:11.323Z,65.00
2017-05-08T23:32:38.949Z,65.02
2017-05-08T23:35:06.490Z,64.64
2017-05-08T23:37:34.154Z,65.83
2017-05-08T23:40:01.667Z,65.78
2017-05-08T23:42:29.179Z,65.13
2017-05-08T23:44:56.832Z,64.99
2017-05-08T23:47:24.351Z,64.87
2017-05-08T23:49:51.921Z,64.96
2017-05-08T23:52:19.432Z,65.22
2017-05-08T23:54:47.198Z,65.02
2017-05-08T23:57:14.707Z,64.50
2017-05-08T23:59:42.223Z,64.20
